Accueil
METAR-TAF:

METAR-TAF

Aéroports :

Limoges, France

Aéroport de Limoges-Bellegarde

latitude: 45-52N, longitude: 001-11E, altitude: 396 m

Observation

Le bulletin a été fait il y a 25 minutes, à 12:00 UTC
Vent 11 kt de nord-est
Température 2°C
Humidité 60%
Pression 1009 hPa
Visibilité 10 km ou plus
Quelques nuages à une hauteur de 2700 ft

METAR: LFBL 231200Z AUTO 05011KT 9999 FEW027 02/M05 Q1009 NOSIG

Heure: 13:25 (12:25 UTC)

Prévision

Le bulletin a été fait il y a 1 heure et 25 minutes, à 11:00 UTC
Prévision valable du 23 à 12 UTC au 24 à 12 UTC
Vent 10 kt de est/nord-est
Visibilité 10 km ou plus
Nuages fragmentés à une hauteur de 2500 ft

TAF: LFBL 231100Z 2312/2412 07010KT 9999 BKN025

Observations et prévisions météorologiques de plus de 4000 aéroports (messages METAR et TAF).

Les stations disponibles sont représentées par des disques jaunes et rouges sur la carte.

Passer la souris dessus pour voir le nom de la station.

Cliquer dessus pour voir les observations et prévisions météorologiques.

Pour changer de carte: cliquez sur les boutons verts avec une croix noire pour zoomer, sur le bouton vert avec un tiret pour effectuer un zoom arrière, ou sur les flèches vertes pour les cartes adjacentes.


METAR-TAF: